createdAt,value
2022-09-11T00:00:55.561Z,149.02
2022-09-11T00:05:51.961Z,152.68
2022-09-11T00:10:48.464Z,153.00
2022-09-11T00:15:45.182Z,146.77
2022-09-11T00:20:49.422Z,144.27
2022-09-11T00:25:46.246Z,141.68
2022-09-11T00:30:44.025Z,144.57
2022-09-11T00:35:40.686Z,148.27
2022-09-11T00:40:46.451Z,143.43
2022-09-11T00:45:43.296Z,142.70
2022-09-11T00:50:43.575Z,141.52
2022-09-11T00:55:42.975Z,143.07
2022-09-11T01:00:39.692Z,149.18
2022-09-11T01:05:37.077Z,144.70
2022-09-11T01:10:53.915Z,144.85
2022-09-11T01:16:05.166Z,137.15
2022-09-11T01:21:08.583Z,138.70
2022-09-11T01:26:23.809Z,136.23
2022-09-11T01:31:23.371Z,138.85
2022-09-11T01:36:21.926Z,136.90
2022-09-11T01:41:27.716Z,139.23
2022-09-11T01:46:26.977Z,135.90
2022-09-11T01:51:25.779Z,138.00
2022-09-11T01:56:23.822Z,135.65
2022-09-11T02:01:22.558Z,135.15
2022-09-11T02:06:23.111Z,133.23
2022-09-11T02:11:19.711Z,140.20
2022-09-11T02:16:19.695Z,141.80
2022-09-11T02:21:15.926Z,134.77
2022-09-11T02:26:12.881Z,136.70
2022-09-11T02:31:09.304Z,133.07
2022-09-11T02:36:24.065Z,136.80
2022-09-11T02:41:24.121Z,136.88
2022-09-11T02:46:38.854Z,135.98
2022-09-11T02:51:44.552Z,133.55
2022-09-11T02:56:43.825Z,134.75
2022-09-11T03:01:47.487Z,137.63
2022-09-11T03:06:43.827Z,132.90
2022-09-11T03:11:40.278Z,133.13
2022-09-11T03:16:39.305Z,133.57
2022-09-11T03:21:35.524Z,129.57
2022-09-11T03:26:33.477Z,131.75
2022-09-11T03:31:29.850Z,131.07
2022-09-11T03:36:26.151Z,132.52
2022-09-11T03:41:22.374Z,126.32
2022-09-11T03:46:18.721Z,125.78
2022-09-11T03:51:15.275Z,126.75
2022-09-11T03:56:12.081Z,130.55
2022-09-11T04:01:09.684Z,130.35
2022-09-11T04:06:06.007Z,132.02
2022-09-11T04:11:03.879Z,129.32
2022-09-11T04:16:01.082Z,128.23
2022-09-11T04:20:57.319Z,131.45
2022-09-11T04:25:53.594Z,131.93
2022-09-11T04:30:49.810Z,134.73
2022-09-11T04:35:46.000Z,129.48
2022-09-11T04:40:42.191Z,132.55
2022-09-11T04:45:40.341Z,135.68
2022-09-11T04:50:36.577Z,137.15
2022-09-11T04:55:32.792Z,137.93
2022-09-11T05:00:28.967Z,134.27
2022-09-11T05:05:25.332Z,131.32
2022-09-11T05:10:21.507Z,137.98
2022-09-11T05:15:19.299Z,125.80
2022-09-11T05:20:16.539Z,122.60
2022-09-11T05:25:13.219Z,121.78
2022-09-11T05:30:09.847Z,116.25
2022-09-11T05:35:07.106Z,116.20
2022-09-11T05:40:04.214Z,150.20
2022-09-11T05:45:00.540Z,150.13
2022-09-11T05:49:56.752Z,156.07
2022-09-11T05:54:53.554Z,156.02
2022-09-11T05:59:49.766Z,148.38
2022-09-11T06:04:46.294Z,150.95
2022-09-11T06:09:42.490Z,152.25
2022-09-11T06:14:38.875Z,155.93
2022-09-11T06:19:35.096Z,148.55
2022-09-11T06:24:31.357Z,149.88
2022-09-11T06:29:27.667Z,156.93
2022-09-11T06:34:23.898Z,123.18
2022-09-11T06:39:23.066Z,135.30
2022-09-11T06:44:19.701Z,146.88
2022-09-11T06:49:16.118Z,153.02
2022-09-11T06:54:12.325Z,158.70
2022-09-11T06:59:08.759Z,129.27
2022-09-11T07:04:05.239Z,128.02
2022-09-11T07:09:02.743Z,125.55
2022-09-11T07:13:59.375Z,117.47
2022-09-11T07:18:55.715Z,125.88
2022-09-11T07:23:57.875Z,126.95
2022-09-11T07:28:55.881Z,126.63
2022-09-11T07:33:52.536Z,128.45
2022-09-11T07:38:49.529Z,126.18
2022-09-11T07:43:45.811Z,133.50
2022-09-11T07:48:42.978Z,124.75
2022-09-11T07:53:43.956Z,79.25
2022-09-11T07:58:41.343Z,75.82
2022-09-11T08:03:37.594Z,71.25
2022-09-11T08:08:34.733Z,68.75
2022-09-11T08:13:30.917Z,88.32
2022-09-11T08:18:27.569Z,107.75
2022-09-11T08:23:23.743Z,86.72
2022-09-11T08:28:20.103Z,86.57
2022-09-11T08:33:19.979Z,71.32
2022-09-11T08:38:16.174Z,56.63
2022-09-11T08:43:16.904Z,49.30
2022-09-11T08:48:13.288Z,39.95
2022-09-11T08:53:15.329Z,47.72
2022-09-11T08:58:21.226Z,39.63
2022-09-11T09:03:17.407Z,31.77
2022-09-11T09:08:19.349Z,31.83
2022-09-11T09:13:34.444Z,32.80
2022-09-11T09:18:32.682Z,38.17
2022-09-11T09:23:30.931Z,28.65
2022-09-11T09:28:34.736Z,25.80
2022-09-11T09:33:31.136Z,21.02
2022-09-11T09:38:28.858Z,18.10
2022-09-11T09:43:36.177Z,20.38
2022-09-11T09:48:34.273Z,18.88
2022-09-11T09:53:33.745Z,17.77
2022-09-11T09:58:34.363Z,17.77
2022-09-11T10:03:31.795Z,15.32
2022-09-11T10:08:35.440Z,14.82
2022-09-11T10:13:37.238Z,15.30
2022-09-11T10:18:37.836Z,11.82
2022-09-11T10:23:43.878Z,12.00
2022-09-11T10:28:40.136Z,11.80
2022-09-11T10:33:39.788Z,10.70
2022-09-11T10:38:41.528Z,11.98
2022-09-11T10:43:55.980Z,11.88
2022-09-11T10:48:55.088Z,14.52
2022-09-11T10:53:57.148Z,11.13
2022-09-11T10:58:57.598Z,10.25
2022-09-11T11:03:55.867Z,10.80
2022-09-11T11:08:55.012Z,13.45
2022-09-11T11:14:27.116Z,10.73
2022-09-11T11:19:32.247Z,9.20
2022-09-11T11:24:40.525Z,8.80
2022-09-11T11:29:50.555Z,7.90
2022-09-11T11:35:05.585Z,8.02
2022-09-11T11:40:20.883Z,8.70
2022-09-11T11:45:17.047Z,8.60
2022-09-11T11:50:29.776Z,7.95
2022-09-11T11:55:36.417Z,8.15
2022-09-11T12:00:39.141Z,8.70
2022-09-11T12:05:36.183Z,8.70
2022-09-11T12:10:34.397Z,8.80
2022-09-11T12:15:32.100Z,9.30
2022-09-11T12:20:37.157Z,9.32
2022-09-11T12:25:35.149Z,8.63
2022-09-11T12:30:51.363Z,8.52
2022-09-11T12:35:49.840Z,8.25
2022-09-11T12:40:52.720Z,8.05
2022-09-11T12:45:49.025Z,7.82
2022-09-11T12:50:56.169Z,7.78
2022-09-11T12:55:54.806Z,7.20
2022-09-11T13:01:00.181Z,7.82
2022-09-11T13:06:03.017Z,8.43
2022-09-11T13:11:17.807Z,8.13
2022-09-11T13:16:17.693Z,8.55
2022-09-11T13:21:15.532Z,8.25
2022-09-11T13:26:15.743Z,8.13
2022-09-11T13:31:16.897Z,8.00
2022-09-11T13:36:14.812Z,8.50
2022-09-11T13:41:15.241Z,9.68
2022-09-11T13:46:18.222Z,8.77
2022-09-11T13:51:34.742Z,7.40
2022-09-11T13:56:38.576Z,7.57
2022-09-11T14:01:37.065Z,8.13
2022-09-11T14:06:34.344Z,7.75
2022-09-11T14:11:31.703Z,8.43
2022-09-11T14:16:31.350Z,7.70
2022-09-11T14:21:35.363Z,8.75
2022-09-11T14:26:32.305Z,7.82
2022-09-11T14:31:34.617Z,7.80
2022-09-11T14:36:30.892Z,8.30
2022-09-11T14:41:27.134Z,7.95
2022-09-11T14:46:23.401Z,7.65
2022-09-11T14:51:20.640Z,7.63
2022-09-11T14:56:16.851Z,7.75
2022-09-11T15:01:13.870Z,8.70
2022-09-11T15:06:13.077Z,8.50
2022-09-11T15:11:09.308Z,9.38
2022-09-11T15:16:05.803Z,8.10
2022-09-11T15:21:02.172Z,8.45
2022-09-11T15:26:02.478Z,8.10
2022-09-11T15:31:02.777Z,9.38
2022-09-11T15:36:03.177Z,8.10
2022-09-11T15:40:59.444Z,7.90
2022-09-11T15:45:56.730Z,7.97
2022-09-11T15:51:01.778Z,7.45
2022-09-11T15:56:17.694Z,7.45
2022-09-11T16:01:18.163Z,7.50
2022-09-11T16:06:14.433Z,8.13
2022-09-11T16:11:11.937Z,7.80
2022-09-11T16:16:08.237Z,7.72
2022-09-11T16:21:05.339Z,7.20
2022-09-11T16:26:02.162Z,8.85
2022-09-11T16:30:58.400Z,7.50
2022-09-11T16:36:02.935Z,7.95
2022-09-11T16:41:02.011Z,7.82
2022-09-11T16:45:58.263Z,7.45
2022-09-11T16:50:55.411Z,7.55
2022-09-11T16:55:53.223Z,7.88
2022-09-11T17:00:49.821Z,8.75
2022-09-11T17:05:47.314Z,7.90
2022-09-11T17:10:44.476Z,8.18
2022-09-11T17:15:42.216Z,9.18
2022-09-11T17:20:38.951Z,8.80
2022-09-11T17:25:38.214Z,8.45
2022-09-11T17:30:36.730Z,9.80
2022-09-11T17:35:33.003Z,10.88
2022-09-11T17:40:30.328Z,11.52
2022-09-11T17:45:26.655Z,11.38
2022-09-11T17:50:23.491Z,11.75
2022-09-11T17:55:19.678Z,14.05
2022-09-11T18:00:15.987Z,14.75
2022-09-11T18:05:12.201Z,14.07
2022-09-11T18:10:08.646Z,14.45
2022-09-11T18:15:05.127Z,14.10
2022-09-11T18:20:03.689Z,15.20
2022-09-11T18:24:59.998Z,14.25
2022-09-11T18:29:56.317Z,14.48
2022-09-11T18:34:52.495Z,13.50
2022-09-11T18:39:49.023Z,14.30
2022-09-11T18:44:45.247Z,12.93
2022-09-11T18:49:41.806Z,14.05
2022-09-11T18:54:38.565Z,15.95
2022-09-11T18:59:34.771Z,16.38
2022-09-11T19:04:31.719Z,16.13
2022-09-11T19:09:29.162Z,19.08
2022-09-11T19:14:25.430Z,16.67
2022-09-11T19:19:21.667Z,13.85
2022-09-11T19:24:19.212Z,15.20
2022-09-11T19:29:15.765Z,14.20
2022-09-11T19:34:12.481Z,15.52
2022-09-11T19:39:09.788Z,15.82
2022-09-11T19:44:07.146Z,17.70
2022-09-11T19:49:03.828Z,17.92
2022-09-11T19:54:02.510Z,18.70
2022-09-11T19:58:59.807Z,20.05
2022-09-11T20:03:56.846Z,20.60
2022-09-11T20:09:03.132Z,21.83
2022-09-11T20:14:09.927Z,23.35
2022-09-11T20:19:06.446Z,27.50
2022-09-11T20:24:04.670Z,26.35
2022-09-11T20:29:06.852Z,30.55
2022-09-11T20:34:03.106Z,30.00
2022-09-11T20:39:00.584Z,35.17
2022-09-11T20:43:57.924Z,37.20
2022-09-11T20:48:54.298Z,39.90
2022-09-11T20:53:50.909Z,44.28
2022-09-11T20:58:47.204Z,44.15
2022-09-11T21:03:44.635Z,46.90
2022-09-11T21:08:42.123Z,50.35
2022-09-11T21:13:39.326Z,49.20
2022-09-11T21:18:35.807Z,53.95
2022-09-11T21:23:32.079Z,59.72
2022-09-11T21:28:28.357Z,61.80
2022-09-11T21:33:25.046Z,63.85
2022-09-11T21:38:22.648Z,68.60
2022-09-11T21:43:18.859Z,74.47
2022-09-11T21:48:15.034Z,83.25
2022-09-11T21:53:11.687Z,82.13
2022-09-11T21:58:08.365Z,90.60
2022-09-11T22:03:04.599Z,83.85
2022-09-11T22:08:00.799Z,84.32
2022-09-11T22:12:56.976Z,88.32
2022-09-11T22:17:53.209Z,92.57
2022-09-11T22:22:50.079Z,87.78
2022-09-11T22:27:46.295Z,100.25
2022-09-11T22:32:42.530Z,100.35
2022-09-11T22:37:38.759Z,102.60
2022-09-11T22:42:34.933Z,97.93
2022-09-11T22:47:31.187Z,101.93
2022-09-11T22:52:27.455Z,112.07
2022-09-11T22:57:26.775Z,108.03
2022-09-11T23:02:25.255Z,111.43
2022-09-11T23:07:21.466Z,107.10
2022-09-11T23:12:17.838Z,114.25
2022-09-11T23:17:14.098Z,107.70
2022-09-11T23:22:10.313Z,110.38
2022-09-11T23:27:06.487Z,112.25
2022-09-11T23:32:02.920Z,117.65
2022-09-11T23:36:59.111Z,115.15
2022-09-11T23:41:55.495Z,115.13
2022-09-11T23:46:51.766Z,113.22
2022-09-11T23:51:49.028Z,119.55
2022-09-11T23:56:45.233Z,117.53
